Time;durP1;ratioP1;P1;durP2;ratioP2;P2;SDS_P1;SDS_P2;PMS_P1;PMS_P2;Temp;Humidity;BMP_temperature;BMP_pressure;BME280_temperature;BME280_humidity;BME280_pressure;Samples;Min_cycle;Max_cycle;Signal;HPM_P1;HPM_P2
2022/10/10 00:02:08;;;;;;;1.37;0.87;;;12.00;88.90;11.40;96057.00;;;;5117266;28;20246;-52
2022/10/10 00:04:34;;;;;;;0.70;0.70;;;12.10;89.00;11.30;96053.00;;;;5099221;28;20232;-53
2022/10/10 00:07:01;;;;;;;1.17;1.07;;;12.00;89.10;11.40;96051.00;;;;5117134;28;20632;-53
2022/10/10 00:09:29;;;;;;;1.77;1.67;;;12.10;89.30;11.30;96056.00;;;;5099059;28;20257;-52
2022/10/10 00:11:56;;;;;;;1.03;1.03;;;12.10;88.80;11.30;96051.00;;;;5117047;28;20661;-52
2022/10/10 00:14:25;;;;;;;1.00;1.00;;;12.00;88.80;11.30;96062.00;;;;5098923;28;20225;-53
2022/10/10 00:16:52;;;;;;;0.70;0.70;;;12.00;89.10;11.40;96058.00;;;;5117020;28;20660;-53
2022/10/10 00:19:19;;;;;;;1.33;1.30;;;12.00;89.20;11.30;96054.00;;;;5116789;28;20202;-53
2022/10/10 00:21:45;;;;;;;0.80;0.80;;;12.00;89.10;11.30;96051.00;;;;5116904;28;20201;-52
2022/10/10 00:24:11;;;;;;;0.90;0.90;;;12.00;89.10;11.20;96046.00;;;;5116870;28;20194;-52
2022/10/10 00:26:38;;;;;;;0.70;0.70;;;11.90;88.80;11.20;96048.00;;;;5098707;28;20295;-53
2022/10/10 00:29:04;;;;;;;1.63;1.53;;;11.90;89.30;11.30;96042.00;;;;5116787;28;20190;-53
2022/10/10 00:31:31;;;;;;;0.90;0.90;;;12.00;89.60;11.30;96056.00;;;;5116828;28;20257;-52
2022/10/10 00:33:58;;;;;;;0.63;0.63;;;12.00;89.60;11.30;96050.00;;;;5116731;28;20621;-52
2022/10/10 00:36:24;;;;;;;0.70;0.70;;;12.00;89.60;11.40;96052.00;;;;5116687;28;20305;-51
2022/10/10 00:38:51;;;;;;;0.87;0.67;;;12.10;90.00;11.40;96057.00;;;;5116689;28;20248;-52
2022/10/10 00:41:21;;;;;;;0.83;0.83;;;12.10;89.90;11.40;96049.00;;;;5116628;28;20194;-53
2022/10/10 00:44:08;;;;;;;0.80;0.80;;;12.10;89.90;11.40;96043.00;;;;5116606;28;20657;-53
2022/10/10 00:46:38;;;;;;;0.87;0.87;;;12.10;89.60;11.40;96039.00;;;;5116536;28;20202;-52
2022/10/10 00:49:13;;;;;;;2.63;1.20;;;12.00;89.40;11.30;96037.00;;;;5116434;28;20630;-52
2022/10/10 00:51:42;;;;;;;0.93;0.93;;;12.00;89.30;11.30;96044.00;;;;5116522;28;20190;-52
2022/10/10 00:54:12;;;;;;;1.10;1.10;;;12.00;89.50;11.30;96042.00;;;;5098461;28;20236;-53
2022/10/10 00:56:45;;;;;;;1.07;1.07;;;12.00;90.00;11.30;96043.00;;;;5098332;28;20325;-52
2022/10/10 00:59:15;;;;;;;1.00;1.00;;;12.00;89.90;11.40;96030.00;;;;5115827;28;20651;-53
2022/10/10 01:01:42;;;;;;;1.67;1.57;;;12.00;89.80;11.50;96031.00;;;;5098254;28;20293;-52
2022/10/10 01:04:31;;;;;;;0.67;0.67;;;12.10;89.80;11.40;96048.00;;;;5116151;28;20704;-55
2022/10/10 01:06:58;;;;;;;0.80;0.80;;;12.10;89.50;11.40;96029.00;;;;5116274;28;20194;-52
2022/10/10 01:09:26;;;;;;;1.13;1.13;;;12.10;89.50;11.50;96037.00;;;;5098161;28;20266;-53
2022/10/10 01:12:04;;;;;;;1.10;1.10;;;12.10;89.20;11.50;96034.00;;;;5116103;28;20262;-53
2022/10/10 01:14:41;;;;;;;0.60;0.60;;;12.10;89.20;11.40;96025.00;;;;5116164;28;20282;-52
2022/10/10 01:17:19;;;;;;;2.87;1.53;;;12.10;89.50;11.40;96022.00;;;;5116034;28;20229;-53
2022/10/10 01:20:23;;;;;;;2.13;1.30;;;12.10;89.50;11.50;96029.00;;;;5098056;28;20300;-53
2022/10/10 01:23:19;;;;;;;0.63;0.63;;;12.10;89.50;11.40;96020.00;;;;5115908;28;20664;-52
2022/10/10 01:26:03;;;;;;;0.77;0.77;;;12.10;99.90;11.40;96023.00;;;;5115965;28;20197;-52
2022/10/10 01:28:43;;;;;;;0.73;0.73;;;12.10;99.90;11.40;96030.00;;;;5097970;28;20587;-52
2022/10/10 01:31:15;;;;;;;0.80;0.80;;;12.20;99.90;11.40;96027.00;;;;5116141;28;20186;-53
2022/10/10 01:33:56;;;;;;;0.87;0.87;;;12.10;99.90;11.50;96020.00;;;;5115739;28;20214;-53
2022/10/10 01:36:31;;;;;;;2.23;1.20;;;12.20;99.90;11.50;96028.00;;;;5115899;28;20193;-53
2022/10/10 01:39:08;;;;;;;0.80;0.80;;;12.10;99.90;11.60;96021.00;;;;5115665;28;20217;-56
2022/10/10 01:41:43;;;;;;;1.10;1.10;;;12.20;99.90;11.50;96021.00;;;;5097578;28;20198;-52
2022/10/10 01:44:13;;;;;;;0.60;0.60;;;;;11.40;96016.00;;;;5115648;28;20229;-52
2022/10/10 01:46:40;;;;;;;1.00;1.00;;;12.10;88.20;11.40;96027.00;;;;5115680;28;20197;-53
2022/10/10 01:49:07;;;;;;;2.27;1.47;;;12.10;89.20;11.30;96029.00;;;;5115443;28;20220;-52
2022/10/10 01:52:03;;;;;;;1.17;1.17;;;12.00;89.40;11.30;96020.00;;;;5114532;28;20208;-52
2022/10/10 01:54:46;;;;;;;0.93;0.93;;;12.00;90.20;11.30;96019.00;;;;5115505;28;20194;-52
2022/10/10 01:57:22;;;;;;;0.67;0.67;;;;;11.20;96020.00;;;;5097939;28;20527;-53
2022/10/10 02:00:01;;;;;;;0.60;0.60;;;;;11.20;96011.00;;;;5115627;28;20194;-52
2022/10/10 02:02:41;;;;;;;0.70;0.70;;;11.80;90.90;11.00;96012.00;;;;5115315;28;20488;-53
2022/10/10 02:05:18;;;;;;;1.43;1.33;;;11.80;90.40;11.00;96009.00;;;;5115611;28;20221;-52
2022/10/10 02:07:51;;;;;;;1.77;1.67;;;11.70;91.40;11.00;96014.00;;;;5115382;28;20185;-53
2022/10/10 02:10:24;;;;;;;1.20;1.20;;;11.60;90.80;10.90;96015.00;;;;5115832;28;20201;-53
2022/10/10 02:12:51;;;;;;;0.60;0.60;;;11.60;92.10;11.00;96012.00;;;;5115290;28;20241;-54
2022/10/10 02:15:23;;;;;;;0.63;0.63;;;11.70;92.10;11.00;96014.00;;;;5115247;28;20262;-54
2022/10/10 02:17:51;;;;;;;0.87;0.87;;;11.70;91.70;11.10;96011.00;;;;5115130;28;20355;-53
2022/10/10 02:20:24;;;;;;;0.83;0.83;;;11.80;91.40;11.20;96013.00;;;;5115195;28;20233;-57
2022/10/10 02:22:50;;;;;;;0.67;0.67;;;11.90;91.20;11.30;96004.00;;;;5114974;28;20226;-54
2022/10/10 02:25:22;;;;;;;0.70;0.70;;;11.90;91.00;11.30;96007.00;;;;5115900;28;20186;-54
2022/10/10 02:28:01;;;;;;;0.93;0.93;;;11.90;90.60;11.30;96000.00;;;;5115062;28;20225;-53
2022/10/10 02:30:29;;;;;;;1.40;1.23;;;;;11.20;96000.00;;;;5115010;28;20205;-53
2022/10/10 02:33:03;;;;;;;0.73;0.73;;;12.00;89.60;11.20;96002.00;;;;5114917;28;20194;-54
2022/10/10 02:35:36;;;;;;;1.17;1.17;;;12.00;90.50;11.30;95997.00;;;;5114923;28;20240;-54
2022/10/10 02:38:10;;;;;;;0.80;0.80;;;12.00;90.60;11.30;95999.00;;;;5114816;28;20672;-57
2022/10/10 02:40:38;;;;;;;0.77;0.77;;;12.00;90.20;11.30;95996.00;;;;5114851;28;20226;-53
2022/10/10 02:43:08;;;;;;;0.60;0.60;;;12.00;90.20;11.40;95988.00;;;;5114717;28;20297;-52
2022/10/10 02:45:39;;;;;;;0.80;0.80;;;12.00;90.30;11.30;96006.00;;;;5113656;28;20218;-54
2022/10/10 02:48:06;;;;;;;0.97;0.97;;;12.00;89.90;11.20;96009.00;;;;5114832;28;20230;-53
2022/10/10 02:50:35;;;;;;;1.03;1.00;;;11.90;90.10;11.20;96004.00;;;;5114730;28;20194;-52
2022/10/10 02:53:01;;;;;;;1.57;1.47;;;11.90;90.40;11.20;96016.00;;;;5114669;28;20214;-53
2022/10/10 02:55:30;;;;;;;0.60;0.60;;;11.90;90.30;11.30;96005.00;;;;5114582;28;20197;-52
2022/10/10 02:57:56;;;;;;;1.53;1.43;;;12.00;90.60;11.30;96010.00;;;;5114438;28;20704;-53
2022/10/10 03:00:23;;;;;;;0.87;0.87;;;12.00;90.50;11.30;96012.00;;;;5114536;28;20280;-52
2022/10/10 03:02:50;;;;;;;0.70;0.70;;;12.00;90.10;11.30;96015.00;;;;5114252;28;20213;-55
2022/10/10 03:05:16;;;;;;;0.80;0.80;;;12.00;90.10;11.30;96011.00;;;;5096339;28;20216;-52
2022/10/10 03:07:43;;;;;;;1.47;1.37;;;12.00;90.00;11.30;96015.00;;;;5114388;28;20218;-54
2022/10/10 03:10:09;;;;;;;0.80;0.80;;;12.00;90.00;11.30;96010.00;;;;5114257;28;20283;-52
2022/10/10 03:12:36;;;;;;;0.83;0.83;;;12.00;90.90;11.30;96009.00;;;;5096229;28;20305;-53
2022/10/10 03:15:05;;;;;;;0.80;0.80;;;12.00;90.10;11.30;96006.00;;;;5114267;28;20198;-52
2022/10/10 03:17:31;;;;;;;1.13;1.13;;;12.00;90.30;11.30;96008.00;;;;5114199;28;20285;-52
2022/10/10 03:19:58;;;;;;;0.90;0.90;;;12.00;90.20;11.30;96014.00;;;;5113844;28;20213;-53
2022/10/10 03:22:27;;;;;;;0.93;0.93;;;12.00;90.00;11.30;96013.00;;;;5113820;28;20532;-52
2022/10/10 03:24:53;;;;;;;1.17;1.17;;;12.00;89.90;11.30;96010.00;;;;5114036;28;20245;-54
2022/10/10 03:27:20;;;;;;;1.83;1.73;;;11.90;90.00;11.30;96005.00;;;;5114087;28;20301;-52
2022/10/10 03:29:46;;;;;;;1.40;1.30;;;12.00;90.40;11.30;96013.00;;;;5113954;28;20201;-53
2022/10/10 03:32:13;;;;;;;0.93;0.90;;;12.00;90.40;11.30;96009.00;;;;5114075;28;20201;-54
2022/10/10 03:34:39;;;;;;;0.90;0.90;;;12.00;90.30;11.30;96011.00;;;;5096093;28;20774;-54
2022/10/10 03:37:06;;;;;;;0.50;0.50;;;12.00;90.30;11.30;96008.00;;;;5113931;28;20200;-53
2022/10/10 03:39:32;;;;;;;1.07;1.07;;;12.00;90.00;11.20;96014.00;;;;5113863;28;20212;-54
2022/10/10 03:41:59;;;;;;;0.93;0.93;;;11.90;89.30;11.20;96007.00;;;;5113688;28;20244;-52
2022/10/10 03:44:25;;;;;;;0.60;0.60;;;11.90;90.00;11.20;96010.00;;;;5096052;28;20331;-53
2022/10/10 03:46:52;;;;;;;0.60;0.60;;;11.90;90.30;11.20;96012.00;;;;5113693;28;20229;-57
2022/10/10 03:49:18;;;;;;;0.60;0.60;;;11.90;90.50;11.20;96018.00;;;;5113829;28;20665;-52
2022/10/10 03:51:44;;;;;;;0.80;0.80;;;11.90;90.70;11.20;96022.00;;;;5113612;28;20205;-54
2022/10/10 03:54:11;;;;;;;2.20;1.60;;;11.90;90.70;11.10;96022.00;;;;5095719;28;20197;-52
2022/10/10 03:56:38;;;;;;;1.07;1.07;;;11.90;90.30;11.10;96016.00;;;;5113531;28;20201;-54
2022/10/10 03:59:05;;;;;;;0.97;0.97;;;11.80;90.50;11.10;96020.00;;;;5113649;28;20217;-53
2022/10/10 04:01:32;;;;;;;0.57;0.57;;;11.80;90.90;11.10;96017.00;;;;5113673;28;20202;-52
2022/10/10 04:03:58;;;;;;;1.03;1.00;;;11.80;90.90;11.00;96014.00;;;;5113235;28;20233;-52
2022/10/10 04:06:26;;;;;;;0.97;0.97;;;11.70;91.10;11.00;96019.00;;;;5113510;28;20206;-52
2022/10/10 04:08:52;;;;;;;1.00;1.00;;;11.80;91.40;11.00;96007.00;;;;5095502;28;20209;-56
2022/10/10 04:11:19;;;;;;;1.03;1.03;;;11.70;91.40;11.10;96010.00;;;;5113397;28;20521;-52
2022/10/10 04:13:48;;;;;;;1.40;1.10;;;11.80;91.40;11.00;96008.00;;;;5113418;28;20206;-53
2022/10/10 04:16:14;;;;;;;0.93;0.93;;;11.70;91.00;11.00;96010.00;;;;5113533;28;20209;-54
2022/10/10 04:18:41;;;;;;;4.20;2.10;;;11.70;91.10;11.00;96014.00;;;;5113404;28;20189;-53
2022/10/10 04:21:11;;;;;;;0.80;0.80;;;11.70;91.30;11.00;96019.00;;;;5113320;28;20225;-55
2022/10/10 04:23:39;;;;;;;0.80;0.80;;;11.70;91.30;11.10;96025.00;;;;5113309;28;20225;-53
2022/10/10 04:26:06;;;;;;;1.30;1.30;;;11.80;91.30;11.10;96009.00;;;;5113189;28;20237;-52
2022/10/10 04:28:33;;;;;;;0.97;0.97;;;11.80;91.20;11.00;95990.00;;;;5113285;28;20204;-53
2022/10/10 04:30:59;;;;;;;0.70;0.70;;;11.70;91.50;11.00;96014.00;;;;5113171;28;20216;-53
2022/10/10 04:33:25;;;;;;;1.00;1.00;;;11.70;91.50;11.10;96000.00;;;;5114930;28;20190;-54
2022/10/10 04:35:54;;;;;;;1.07;0.97;;;11.80;91.60;11.10;96006.00;;;;5116705;28;20641;-53
2022/10/10 04:38:21;;;;;;;1.00;1.00;;;11.80;91.30;11.20;96002.00;;;;5116565;28;20266;-53
2022/10/10 04:40:48;;;;;;;1.00;1.00;;;11.80;91.50;11.20;96009.00;;;;5116624;28;20221;-52
2022/10/10 04:43:15;;;;;;;1.17;1.17;;;11.80;91.10;11.10;96005.00;;;;5116465;28;20225;-53
2022/10/10 04:45:42;;;;;;;0.70;0.70;;;11.80;91.90;11.10;96002.00;;;;5116668;28;20212;-52
2022/10/10 04:48:08;;;;;;;1.20;1.10;;;11.80;91.10;11.10;96003.00;;;;5116570;28;20221;-52
2022/10/10 04:50:35;;;;;;;1.10;1.10;;;11.70;91.50;11.00;95995.00;;;;5116598;28;20218;-52
2022/10/10 04:53:01;;;;;;;0.90;0.90;;;11.80;91.50;11.10;96002.00;;;;5116480;28;20201;-53
2022/10/10 04:55:30;;;;;;;0.77;0.77;;;11.80;91.60;11.10;95996.00;;;;5116414;28;20322;-57
2022/10/10 04:57:57;;;;;;;1.07;1.07;;;11.80;91.80;11.10;95990.00;;;;5116380;28;20202;-52
2022/10/10 05:00:23;;;;;;;1.30;1.20;;;11.70;91.90;11.00;95999.00;;;;5116211;28;20600;-52
2022/10/10 05:02:53;;;;;;;0.77;0.77;;;11.70;92.40;11.10;96007.00;;;;5116190;28;20230;-52
2022/10/10 05:05:22;;;;;;;1.90;1.50;;;11.70;92.60;11.00;96001.00;;;;5116083;28;20236;-54
2022/10/10 05:07:48;;;;;;;1.27;1.17;;;11.70;92.60;11.00;95996.00;;;;5116278;28;20198;-52
2022/10/10 05:10:15;;;;;;;1.13;1.13;;;11.70;92.70;11.00;95996.00;;;;5116190;28;20208;-53
2022/10/10 05:12:41;;;;;;;0.60;0.60;;;11.70;93.00;11.10;96003.00;;;;5116138;28;20652;-53
2022/10/10 05:15:09;;;;;;;1.00;1.00;;;11.70;93.20;11.00;95995.00;;;;5115965;28;20198;-53
2022/10/10 05:17:35;;;;;;;0.90;0.90;;;11.70;92.90;11.00;96007.00;;;;5116066;28;20228;-53
2022/10/10 05:20:03;;;;;;;1.47;1.37;;;11.70;93.30;10.90;96008.00;;;;5115945;28;20198;-53
2022/10/10 05:22:30;;;;;;;0.80;0.80;;;11.60;92.60;10.80;96017.00;;;;5115903;28;20222;-52
2022/10/10 05:24:59;;;;;;;0.93;0.93;;;11.50;93.10;10.70;96026.00;;;;5116131;28;20225;-52
2022/10/10 05:27:28;;;;;;;1.00;1.00;;;11.40;93.60;10.70;96023.00;;;;5115904;28;20208;-52
2022/10/10 05:29:55;;;;;;;1.03;1.03;;;11.50;93.70;10.70;96011.00;;;;5117387;28;20222;-53
2022/10/10 05:32:22;;;;;;;1.03;1.03;;;11.40;93.70;10.70;96021.00;;;;5116942;28;20194;-53
2022/10/10 05:34:49;;;;;;;0.80;0.80;;;11.40;93.90;10.80;95998.00;;;;5115786;28;20221;-52
2022/10/10 05:37:18;;;;;;;0.70;0.70;;;11.50;94.30;10.80;96011.00;;;;5115898;28;20190;-54
2022/10/10 05:39:45;;;;;;;1.07;1.07;;;11.50;94.30;10.90;96018.00;;;;5115663;28;20274;-54
2022/10/10 05:42:13;;;;;;;1.67;1.23;;;11.60;94.70;10.90;96017.00;;;;5115755;28;20285;-54
2022/10/10 05:44:40;;;;;;;3.90;1.43;;;11.60;95.10;10.90;96012.00;;;;5115311;28;20232;-53
2022/10/10 05:47:06;;;;;;;0.80;0.80;;;11.60;94.40;10.80;96003.00;;;;5116021;28;20714;-54
2022/10/10 05:49:33;;;;;;;1.23;1.13;;;11.50;94.80;10.80;96007.00;;;;5115712;28;20229;-53
2022/10/10 05:51:59;;;;;;;0.90;0.90;;;11.60;95.30;10.90;96006.00;;;;5115552;28;20210;-52
2022/10/10 05:54:26;;;;;;;4.53;1.27;;;11.60;95.00;10.90;96015.00;;;;5097621;28;20201;-54
2022/10/10 05:56:53;;;;;;;0.90;0.90;;;11.60;94.70;11.00;96014.00;;;;5115557;28;20240;-54
2022/10/10 05:59:19;;;;;;;1.00;1.00;;;11.60;93.00;10.70;96018.00;;;;5115796;28;20190;-52
2022/10/10 06:01:46;;;;;;;1.63;1.17;;;11.40;97.30;10.70;96018.00;;;;5115338;28;20214;-53
2022/10/10 06:04:12;;;;;;;0.70;0.70;;;11.50;93.80;10.70;96017.00;;;;5115210;28;20618;-52
2022/10/10 06:06:38;;;;;;;0.80;0.80;;;11.40;93.90;10.70;96025.00;;;;5115399;28;20198;-52
2022/10/10 06:09:05;;;;;;;0.80;0.80;;;11.30;94.10;10.60;96033.00;;;;5114634;28;20267;-53
2022/10/10 06:11:32;;;;;;;0.50;0.50;;;11.30;94.10;10.70;96038.00;;;;5115242;28;20281;-52
2022/10/10 06:14:01;;;;;;;0.80;0.80;;;11.30;93.80;10.70;96035.00;;;;5115159;28;20225;-52
2022/10/10 06:16:28;;;;;;;1.47;1.47;;;11.30;94.50;10.80;96029.00;;;;5115101;28;20198;-53
2022/10/10 06:18:55;;;;;;;2.70;1.83;;;11.40;94.80;10.90;96033.00;;;;5096966;28;20669;-53
2022/10/10 06:21:25;;;;;;;1.57;1.23;;;11.60;94.80;10.90;96033.00;;;;5114813;28;20201;-53
2022/10/10 06:23:52;;;;;;;1.20;1.20;;;11.60;95.20;10.90;96036.00;;;;5114969;28;20607;-52
2022/10/10 06:26:18;;;;;;;5.70;1.27;;;11.60;94.60;11.00;96048.00;;;;5115043;28;20485;-52
2022/10/10 06:28:45;;;;;;;0.60;0.60;;;11.70;94.70;11.10;96042.00;;;;5114969;28;20320;-52
2022/10/10 06:31:13;;;;;;;1.23;1.23;;;11.70;94.50;11.20;96010.00;;;;5115168;28;20202;-53
2022/10/10 06:33:42;;;;;;;1.50;1.40;;;;;11.20;96042.00;;;;5114871;28;20186;-52
2022/10/10 06:36:09;;;;;;;1.67;1.57;;;11.90;93.70;11.30;96058.00;;;;5114917;28;20208;-57
2022/10/10 06:38:40;;;;;;;1.17;1.17;;;11.90;94.00;11.30;96049.00;;;;5096788;28;20237;-52
2022/10/10 06:41:08;;;;;;;0.80;0.80;;;12.00;93.90;11.30;96025.00;;;;5115026;28;20340;-56
2022/10/10 06:43:35;;;;;;;0.80;0.80;;;12.00;93.60;11.30;96056.00;;;;5114649;28;20300;-52
2022/10/10 06:46:04;;;;;;;0.87;0.87;;;12.00;94.10;11.30;96046.00;;;;5114708;28;20216;-53
2022/10/10 06:48:34;;;;;;;1.30;1.20;;;12.00;94.00;11.40;96051.00;;;;5114631;28;20170;-54
2022/10/10 06:51:03;;;;;;;0.80;0.80;;;12.10;94.20;11.40;96054.00;;;;5114611;28;20190;-52
2022/10/10 06:53:31;;;;;;;0.70;0.70;;;12.00;94.10;11.50;96053.00;;;;5114540;28;20190;-52
2022/10/10 06:55:58;;;;;;;0.90;0.90;;;12.10;94.00;11.50;96058.00;;;;5095645;28;20212;-52
2022/10/10 06:58:27;;;;;;;0.80;0.80;;;12.10;93.70;11.60;96060.00;;;;5114545;28;20208;-53
2022/10/10 07:00:56;;;;;;;1.00;1.00;;;12.20;93.60;11.70;96065.00;;;;5114408;28;20220;-51
2022/10/10 07:03:24;;;;;;;1.20;1.20;;;12.30;93.50;11.80;96064.00;;;;5114452;28;20248;-51
2022/10/10 07:05:52;;;;;;;0.73;0.73;;;12.40;93.00;11.90;96053.00;;;;5114442;28;20234;-52
2022/10/10 07:08:22;;;;;;;1.00;1.00;;;12.50;92.60;12.10;96059.00;;;;5114532;28;20201;-54
2022/10/10 07:10:49;;;;;;;0.83;0.83;;;12.70;92.30;12.10;96062.00;;;;5114496;28;20232;-54
2022/10/10 07:13:15;;;;;;;0.93;0.93;;;;;12.30;96066.00;;;;5096734;28;20221;-52
2022/10/10 07:15:42;;;;;;;2.00;1.90;;;12.80;91.00;12.30;96071.00;;;;5114097;28;20243;-51
2022/10/10 07:18:10;;;;;;;0.70;0.70;;;12.90;91.30;12.30;96070.00;;;;5114280;28;20277;-52
2022/10/10 07:20:39;;;;;;;0.77;0.77;;;12.90;90.60;12.30;96065.00;;;;5114223;28;20210;-52
2022/10/10 07:23:05;;;;;;;0.97;0.97;;;12.90;90.50;12.40;96074.00;;;;5114072;28;20222;-52
2022/10/10 07:25:32;;;;;;;0.90;0.90;;;13.00;90.50;12.40;96068.00;;;;5114249;28;20185;-51
2022/10/10 07:27:59;;;;;;;0.80;0.80;;;13.00;90.60;12.50;96058.00;;;;5096363;28;20275;-53
2022/10/10 07:30:27;;;;;;;1.97;1.87;;;13.10;90.40;12.60;96071.00;;;;5114109;28;20210;-52
2022/10/10 07:32:54;;;;;;;1.97;1.37;;;13.20;90.70;12.70;96077.00;;;;5096190;28;20216;-52
2022/10/10 07:35:24;;;;;;;0.83;0.73;;;13.30;90.90;12.70;96078.00;;;;5114019;28;20196;-52
2022/10/10 07:37:54;;;;;;;1.43;1.37;;;13.30;90.00;12.70;96081.00;;;;5114241;28;20271;-52
2022/10/10 07:40:21;;;;;;;0.87;0.87;;;13.30;89.90;12.70;96091.00;;;;5095943;28;20220;-52
2022/10/10 07:42:48;;;;;;;0.87;0.87;;;13.30;90.00;12.60;96083.00;;;;5113914;28;20221;-53
2022/10/10 07:45:14;;;;;;;1.17;1.17;;;13.20;90.40;12.70;96095.00;;;;5113797;28;20228;-54
2022/10/10 07:47:41;;;;;;;1.23;1.23;;;13.30;91.30;12.60;96095.00;;;;5113912;28;20210;-53
2022/10/10 07:50:10;;;;;;;0.80;0.80;;;13.30;90.10;12.50;96101.00;;;;5113898;28;20277;-52
2022/10/10 07:52:40;;;;;;;1.73;1.63;;;13.20;90.40;12.50;96097.00;;;;5095995;28;20204;-52
2022/10/10 07:55:10;;;;;;;1.27;1.17;;;13.20;90.50;12.60;96099.00;;;;5113801;28;20241;-52
2022/10/10 07:57:37;;;;;;;0.90;0.90;;;13.20;91.10;12.70;96091.00;;;;5113845;28;20221;-52
2022/10/10 08:00:06;;;;;;;0.60;0.60;;;13.20;91.40;12.70;96067.00;;;;5113753;28;20197;-53
2022/10/10 08:02:32;;;;;;;1.40;1.40;;;13.30;91.40;12.80;96099.00;;;;5113469;28;20217;-53
2022/10/10 08:04:59;;;;;;;0.83;0.83;;;13.40;91.20;12.80;96097.00;;;;5113662;28;20240;-52
2022/10/10 08:07:25;;;;;;;0.70;0.70;;;13.40;90.80;12.80;96065.00;;;;5115449;28;20208;-51
2022/10/10 08:09:52;;;;;;;1.00;1.00;;;13.40;91.20;12.90;96098.00;;;;5117538;28;20193;-52
2022/10/10 08:12:19;;;;;;;1.47;1.40;;;13.50;92.70;13.00;96089.00;;;;5099310;28;20198;-55
2022/10/10 08:14:45;;;;;;;0.80;0.80;;;13.60;91.50;13.00;96096.00;;;;5099212;28;20554;-52
2022/10/10 08:17:12;;;;;;;1.20;1.20;;;13.60;90.40;12.90;96102.00;;;;5116280;28;20646;-52
2022/10/10 08:19:38;;;;;;;0.83;0.83;;;13.50;90.00;12.90;96100.00;;;;5117199;28;20232;-52
2022/10/10 08:22:05;;;;;;;0.90;0.90;;;13.50;91.00;13.00;96104.00;;;;5117070;28;20238;-52
2022/10/10 08:24:32;;;;;;;0.60;0.60;;;13.60;90.80;13.10;96061.00;;;;5099189;28;20295;-54
2022/10/10 08:26:58;;;;;;;2.00;1.30;;;13.70;90.30;13.20;96098.00;;;;5116981;28;20200;-54
2022/10/10 08:29:25;;;;;;;0.80;0.80;;;13.80;89.60;13.30;96096.00;;;;5117047;28;20202;-52
2022/10/10 08:31:52;;;;;;;0.90;0.90;;;13.90;89.70;13.40;96097.00;;;;5116822;28;20309;-52
2022/10/10 08:34:18;;;;;;;0.70;0.70;;;14.00;90.20;13.40;96104.00;;;;5117027;28;20191;-52
2022/10/10 08:36:45;;;;;;;1.00;1.00;;;14.00;89.20;13.40;96094.00;;;;5116844;28;20202;-52
2022/10/10 08:39:11;;;;;;;0.97;0.97;;;14.00;88.60;13.40;96100.00;;;;5116893;28;20216;-52
2022/10/10 08:41:44;;;;;;;1.17;1.17;;;14.00;88.40;13.40;96099.00;;;;5116790;28;20232;-52
2022/10/10 08:44:20;;;;;;;12.43;4.20;;;14.00;88.40;13.40;96101.00;;;;5116685;28;20314;-52
2022/10/10 08:46:52;;;;;;;2.80;2.60;;;14.00;89.20;13.50;96095.00;;;;5116886;28;20214;-54
2022/10/10 08:49:31;;;;;;;2.20;2.07;;;14.10;89.10;13.60;96108.00;;;;5116623;28;20222;-52
2022/10/10 08:52:07;;;;;;;1.47;1.37;;;14.20;88.90;13.70;96104.00;;;;5116793;28;20202;-52
2022/10/10 08:54:38;;;;;;;0.77;0.77;;;14.20;88.70;13.80;96105.00;;;;5116615;28;20209;-52
2022/10/10 08:57:22;;;;;;;0.80;0.80;;;14.30;88.10;13.90;96105.00;;;;5116794;28;20229;-53
2022/10/10 08:59:53;;;;;;;0.97;0.97;;;14.40;88.40;14.10;96098.00;;;;5116608;28;20190;-53
2022/10/10 09:02:35;;;;;;;0.70;0.70;;;14.60;88.20;14.30;96098.00;;;;5116371;28;20236;-53
2022/10/10 09:05:02;;;;;;;1.20;1.20;;;14.80;88.10;14.30;96080.00;;;;5116445;28;20237;-53
2022/10/10 09:08:05;;;;;;;0.70;0.70;;;14.80;88.00;14.50;96097.00;;;;5116401;28;20190;-52
2022/10/10 09:10:41;;;;;;;1.00;1.00;;;15.00;87.90;14.50;96098.00;;;;5116581;28;20225;-52
2022/10/10 09:13:24;;;;;;;0.90;0.90;;;15.00;87.80;14.80;96092.00;;;;5116397;28;20197;-52
2022/10/10 09:15:58;;;;;;;0.70;0.70;;;15.20;89.00;15.00;96092.00;;;;5116500;28;20225;-53
2022/10/10 09:18:48;;;;;;;0.60;0.60;;;15.40;88.20;15.20;96088.00;;;;5115508;28;20230;-54
2022/10/10 09:21:20;;;;;;;0.77;0.77;;;15.70;87.00;15.10;96102.00;;;;5116238;28;20296;-52
2022/10/10 09:23:53;;;;;;;0.90;0.90;;;15.70;86.40;15.30;96102.00;;;;5115972;28;20240;-52
2022/10/10 09:26:26;;;;;;;0.60;0.60;;;15.80;86.90;15.50;96093.00;;;;5116199;28;20198;-52
2022/10/10 09:29:01;;;;;;;1.10;0.87;;;15.90;87.00;15.50;96099.00;;;;5116064;28;20281;-53
2022/10/10 09:31:37;;;;;;;0.53;0.53;;;16.00;87.20;15.90;96098.00;;;;5116052;28;20233;-51
2022/10/10 09:34:13;;;;;;;1.30;1.20;;;16.40;84.00;16.10;96104.00;;;;5116086;28;20283;-53
2022/10/10 09:36:41;;;;;;;1.43;1.43;;;16.60;83.20;16.10;96114.00;;;;5116022;28;20204;-53
2022/10/10 09:39:22;;;;;;;0.90;0.90;;;16.50;82.10;16.10;96091.00;;;;5098006;28;20536;-52
2022/10/10 09:41:57;;;;;;;0.80;0.80;;;16.60;81.60;16.10;96101.00;;;;5115832;28;20229;-53
2022/10/10 09:44:24;;;;;;;1.00;1.00;;;16.60;82.60;16.00;96102.00;;;;5115778;28;20224;-51
2022/10/10 09:46:51;;;;;;;0.60;0.60;;;16.50;83.20;16.20;96096.00;;;;5115728;28;20257;-53
2022/10/10 09:49:20;;;;;;;0.50;0.50;;;16.70;82.00;16.30;96095.00;;;;5115756;28;20717;-53
2022/10/10 09:51:48;;;;;;;1.50;0.70;;;16.70;82.40;16.40;96089.00;;;;5115770;28;20198;-51
2022/10/10 09:54:18;;;;;;;1.03;1.03;;;16.80;83.00;16.30;96100.00;;;;5115729;28;20285;-52
2022/10/10 09:56:52;;;;;;;2.30;1.73;;;16.90;82.00;16.30;96101.00;;;;5097845;28;20198;-52
2022/10/10 09:59:41;;;;;;;0.90;0.90;;;16.80;81.80;16.10;96097.00;;;;5097601;28;20225;-55
2022/10/10 10:02:14;;;;;;;1.03;1.03;;;16.70;82.80;16.10;96093.00;;;;5115946;28;20621;-52
2022/10/10 10:04:42;;;;;;;0.80;0.80;;;16.70;82.90;16.20;96100.00;;;;5115503;28;20661;-53
2022/10/10 10:07:21;;;;;;;0.43;0.43;;;16.80;83.50;16.60;96094.00;;;;5097561;28;20245;-53
2022/10/10 10:09:49;;;;;;;1.27;1.00;;;17.00;83.50;16.90;96085.00;;;;5097525;28;20249;-51
2022/10/10 10:12:24;;;;;;;0.77;0.77;;;17.50;79.90;17.20;96092.00;;;;5115365;28;20197;-51
2022/10/10 10:14:58;;;;;;;0.60;0.60;;;17.50;80.70;17.20;96093.00;;;;5115274;28;20233;-51
2022/10/10 10:17:27;;;;;;;0.87;0.87;;;17.70;76.80;17.40;96095.00;;;;5115337;28;20328;-51
2022/10/10 10:19:55;;;;;;;0.87;0.87;;;17.80;77.80;17.60;96094.00;;;;5115177;28;20342;-52
2022/10/10 10:22:32;;;;;;;0.80;0.80;;;18.00;77.30;17.70;96097.00;;;;5115225;28;20332;-51
2022/10/10 10:25:31;;;;;;;0.77;0.77;;;18.10;76.80;18.00;96086.00;;;;5115236;28;20206;-53
2022/10/10 10:28:18;;;;;;;1.33;0.87;;;18.40;75.60;18.10;96096.00;;;;5115143;28;20232;-51
2022/10/10 10:30:45;;;;;;;0.50;0.50;;;;;18.30;96097.00;;;;5113815;28;20218;-51
2022/10/10 10:33:23;;;;;;;1.07;1.07;;;;;18.30;96096.00;;;;5097144;28;20231;-52
2022/10/10 10:35:58;;;;;;;1.60;1.50;;;;;18.30;96095.00;;;;5114929;28;20190;-51
2022/10/10 10:38:39;;;;;;;0.80;0.80;;;;;18.60;96089.00;;;;5096871;28;20292;-51
2022/10/10 10:41:16;;;;;;;1.10;1.00;;;;;18.90;96099.00;;;;5115023;28;20194;-53
2022/10/10 10:44:00;;;;;;;0.87;0.87;;;;;18.90;96094.00;;;;5114857;28;20218;-51
2022/10/10 10:46:36;;;;;;;0.60;0.60;;;;;19.20;96092.00;;;;5115047;28;20190;-52
2022/10/10 10:49:09;;;;;;;0.67;0.67;;;;;19.40;96097.00;;;;5114996;28;20186;-53
2022/10/10 10:51:58;;;;;;;0.73;0.73;;;;;19.50;96100.00;;;;5114650;28;20210;-51
2022/10/10 10:54:39;;;;;;;0.60;0.60;;;;;19.70;96089.00;;;;5114624;28;20213;-51
2022/10/10 10:57:14;;;;;;;0.40;0.40;;;;;20.00;96093.00;;;;5114757;28;20345;-51
2022/10/10 10:59:53;;;;;;;0.60;0.60;;;;;20.10;96085.00;;;;5114654;28;20276;-52
2022/10/10 11:02:39;;;;;;;0.73;0.73;;;;;20.10;96085.00;;;;5096560;28;20232;-51
2022/10/10 11:05:29;;;;;;;1.00;1.00;;;;;20.50;96084.00;;;;5096565;28;20559;-51
2022/10/10 11:08:22;;;;;;;0.97;0.97;;;;;20.30;96088.00;;;;5114487;28;20222;-51
2022/10/10 11:10:59;;;;;;;1.77;1.30;;;;;20.20;96085.00;;;;5105061;28;20243;-51
2022/10/10 11:13:36;;;;;;;4.27;1.70;;;;;20.50;96090.00;;;;5114340;28;20316;-50
2022/10/10 11:16:11;;;;;;;0.50;0.50;;;;;20.80;96083.00;;;;5114407;28;20254;-53
2022/10/10 11:18:42;;;;;;;0.83;0.83;;;;;21.10;96085.00;;;;5114588;28;20329;-51